Time;durP1;ratioP1;P1;durP2;ratioP2;P2;SDS_P1;SDS_P2;PMS_P1;PMS_P2;Temp;Humidity;BMP_temperature;BMP_pressure;BME280_temperature;BME280_humidity;BME280_pressure;Samples;Min_cycle;Max_cycle;Signal;HPM_P1;HPM_P2
2022/01/05 00:01:42;;;;;;;6.17;4.83;;;;;;;6.85;100.00;97266.69;5020341;28;20256;-83
2022/01/05 00:04:11;;;;;;;6.50;4.60;;;;;;;6.73;100.00;97272.94;5031485;28;20217;-83
2022/01/05 00:06:39;;;;;;;4.97;4.27;;;;;;;6.68;100.00;97265.41;5022425;28;20646;-84
2022/01/05 00:09:08;;;;;;;5.07;4.10;;;;;;;6.69;100.00;97263.63;5019790;28;20202;-83
2022/01/05 00:11:41;;;;;;;4.60;4.10;;;;;;;6.83;100.00;97263.34;5020987;28;20202;-84
2022/01/05 00:14:09;;;;;;;6.27;4.10;;;;;;;6.84;100.00;97259.75;5025576;28;20214;-84
2022/01/05 00:16:38;;;;;;;3.57;3.27;;;;;;;6.84;100.00;97267.22;5024960;28;20214;-84
2022/01/05 00:19:06;;;;;;;3.80;3.40;;;;;;;6.55;100.00;97260.25;5022923;28;20263;-84
2022/01/05 00:21:35;;;;;;;3.63;3.20;;;;;;;6.57;100.00;97260.16;5025858;28;20204;-84
2022/01/05 00:24:04;;;;;;;4.50;3.50;;;;;;;6.67;100.00;97262.91;5022581;28;20206;-84
2022/01/05 00:26:32;;;;;;;3.40;3.10;;;;;;;6.81;100.00;97262.66;5020558;28;20238;-84
2022/01/05 00:29:03;;;;;;;4.07;3.37;;;;;;;6.80;100.00;97256.56;5009714;28;20202;-84
2022/01/05 00:31:31;;;;;;;4.77;4.00;;;;;;;6.81;100.00;97252.97;5011221;28;20214;-84
2022/01/05 00:33:59;;;;;;;5.37;4.33;;;;;;;6.99;100.00;97248.03;5005669;28;20221;-84
2022/01/05 00:36:27;;;;;;;4.90;3.90;;;;;;;6.99;100.00;97248.03;5011312;28;20224;-83
2022/01/05 00:38:56;;;;;;;5.20;4.13;;;;;;;6.84;100.00;97249.25;5008721;28;20205;-84
2022/01/05 00:41:25;;;;;;;5.30;3.57;;;;;;;6.84;100.00;97249.25;5007202;28;20202;-84
2022/01/05 00:43:53;;;;;;;5.87;3.80;;;;;;;7.00;100.00;97227.81;5006826;28;20202;-84
2022/01/05 00:46:23;;;;;;;4.00;3.50;;;;;;;7.08;100.00;97223.59;5007608;28;20195;-84
2022/01/05 00:48:51;;;;;;;4.00;3.20;;;;;;;7.03;100.00;97227.56;5020063;28;20645;-83
2022/01/05 00:51:20;;;;;;;3.17;2.87;;;;;;;6.96;100.00;97207.97;5020444;28;20206;-81
2022/01/05 00:53:48;;;;;;;3.20;2.90;;;;;;;6.96;100.00;97207.97;5038011;28;20183;-83
2022/01/05 00:56:17;;;;;;;4.00;2.90;;;;;;;7.06;100.00;97208.91;5012090;28;20695;-84
2022/01/05 00:58:45;;;;;;;3.40;2.80;;;;;;;6.97;100.00;97204.38;5007260;28;20194;-83
2022/01/05 01:01:17;;;;;;;4.17;3.10;;;;;;;6.97;100.00;97204.38;5001691;28;20202;-84
2022/01/05 01:03:47;;;;;;;3.43;2.73;;;;;;;6.93;100.00;97214.28;5008058;28;20194;-84
2022/01/05 01:06:15;;;;;;;3.70;2.90;;;;;;;6.96;100.00;97207.97;5008508;28;20657;-84
2022/01/05 01:08:44;;;;;;;3.93;3.13;;;;;;;6.94;100.00;97210.69;5011990;28;20251;-84
2022/01/05 01:11:12;;;;;;;3.20;2.90;;;;;;;7.03;100.00;97206.50;5004987;28;20226;-84
2022/01/05 01:13:41;;;;;;;3.97;3.17;;;;;;;6.99;100.00;97213.81;5007724;28;20187;-83
2022/01/05 01:16:10;;;;;;;4.67;3.37;;;;;;;7.06;100.00;97206.28;5008103;28;20201;-84
2022/01/05 01:18:38;;;;;;;4.37;3.50;;;;;;;7.02;100.00;97208.28;5013469;28;20241;-84
2022/01/05 01:21:08;;;;;;;4.33;3.23;;;;;;;7.10;100.00;97215.56;5017360;28;20205;-84
2022/01/05 01:23:40;;;;;;;4.60;3.10;;;;;;;6.84;100.00;97212.41;5011007;28;20424;-85
2022/01/05 01:26:09;;;;;;;5.43;3.40;;;;;;;6.56;100.00;97221.66;5005036;28;20198;-83
2022/01/05 01:28:37;;;;;;;4.67;3.40;;;;;;;-144.59;100.00;82246.97;5012373;28;20221;-83
2022/01/05 01:31:05;;;;;;;3.87;3.43;;;;;;;6.73;100.00;97209.81;5021767;28;20218;-84
2022/01/05 01:33:34;;;;;;;3.70;3.40;;;;;;;6.89;100.00;97216.34;5011504;28;20194;-84
2022/01/05 01:36:02;;;;;;;4.13;3.60;;;;;;;6.89;100.00;97216.34;5020136;28;20196;-84
2022/01/05 01:38:33;;;;;;;4.67;3.90;;;;;;;6.64;100.00;97208.75;5016606;28;20201;-84
2022/01/05 01:41:01;;;;;;;6.07;3.90;;;;;;;6.60;100.00;97212.56;5012861;28;20302;-84
2022/01/05 01:43:30;;;;;;;3.83;3.43;;;;;;;6.55;100.00;97219.97;5007950;28;20248;-84
2022/01/05 01:45:58;;;;;;;4.33;3.90;;;;;;;6.49;100.00;97215.22;5020420;28;20210;-83
2022/01/05 01:48:28;;;;;;;4.20;3.80;;;;;;;6.47;100.00;97223.25;5014315;28;20205;-84
2022/01/05 01:50:57;;;;;;;4.93;4.13;;;;;;;6.46;100.00;97229.44;4931824;29;20721;-84
2022/01/05 01:53:25;;;;;;;4.77;4.23;;;;;;;6.47;100.00;97233.75;4929716;29;20189;-83
2022/01/05 01:56:01;;;;;;;5.37;3.60;;;;;;;6.41;100.00;97241.28;4930540;29;20201;-83
2022/01/05 01:58:34;;;;;;;3.87;3.23;;;;;;;6.44;100.00;97257.63;4936213;29;20204;-83
2022/01/05 02:01:04;;;;;;;5.03;2.93;;;;;;;6.39;100.00;97244.03;4934592;29;20208;-84
2022/01/05 02:03:32;;;;;;;4.00;3.00;;;;;;;6.47;100.00;97249.53;4931065;29;20217;-84
2022/01/05 02:06:01;;;;;;;5.53;2.60;;;;;;;6.57;100.00;97278.56;4932958;29;20305;-84
2022/01/05 02:08:30;;;;;;;0.60;0.60;;;;;;;5.89;100.00;97296.00;4932519;29;20201;-85
2022/01/05 02:11:01;;;;;;;1.60;0.50;;;;;;;5.89;100.00;97296.00;4919428;29;20224;-84
2022/01/05 02:13:29;;;;;;;0.73;0.53;;;;;;;4.83;100.00;97321.25;4934670;29;20201;-84
2022/01/05 02:15:57;;;;;;;1.03;0.50;;;;;;;4.29;100.00;97339.00;4912116;29;20213;-84
2022/01/05 02:21:15;;;;;;;3.33;1.17;;;;;;;3.84;100.00;97345.53;4916061;28;20223;-84
2022/01/05 02:23:44;;;;;;;3.60;1.00;;;;;;;3.84;100.00;97345.53;4932838;29;20232;-84
2022/01/05 02:26:13;;;;;;;1.43;0.77;;;;;;;93.73;100.00;97350.56;4935882;29;20193;-84
2022/01/05 02:28:43;;;;;;;1.30;1.00;;;;;;;3.89;100.00;97360.00;4935340;29;20240;-84
2022/01/05 02:31:11;;;;;;;2.23;1.03;;;;;;;3.96;100.00;97363.06;4934773;29;20292;-84
2022/01/05 02:33:41;;;;;;;1.87;1.07;;;;;;;4.05;100.00;97372.91;4939893;29;20205;-85
2022/01/05 02:36:11;;;;;;;1.40;0.83;;;;;;;3.85;100.00;97382.06;4938967;29;20193;-84
2022/01/05 02:38:43;;;;;;;1.73;0.90;;;;;;;3.93;100.00;97378.97;4931722;29;20209;-84
2022/01/05 02:41:12;;;;;;;3.13;1.00;;;;;;;3.97;100.00;97388.31;4977813;28;20198;-84
2022/01/05 02:43:43;;;;;;;2.87;0.90;;;;;;;4.14;100.00;97408.13;4994554;28;20207;-84
2022/01/05 02:46:13;;;;;;;2.17;0.80;;;;;;;4.17;100.00;97402.72;4991864;28;20203;-84
2022/01/05 02:48:42;;;;;;;1.37;0.80;;;;;;;4.09;100.00;97407.59;4996949;28;20230;-84
2022/01/05 02:51:12;;;;;;;0.93;0.80;;;;;;;4.14;100.00;97416.81;4989438;28;20223;-84
2022/01/05 02:53:40;;;;;;;2.40;0.80;;;;;;;4.09;100.00;97415.47;4969704;28;20236;-84
2022/01/05 02:56:13;;;;;;;1.83;1.10;;;;;;;4.09;100.00;97415.47;4968794;28;20207;-84
2022/01/05 02:58:44;;;;;;;2.23;0.90;;;;;;;4.09;100.00;97428.56;4971332;28;20208;-84
2022/01/05 03:01:13;;;;;;;2.87;0.90;;;;;;;4.08;100.00;97429.50;4973936;28;20204;-84
2022/01/05 03:03:42;;;;;;;1.73;0.77;;;;;;;4.08;100.00;97429.50;4979138;28;20211;-84
2022/01/05 03:06:10;;;;;;;1.87;0.80;;;;;;;4.07;100.00;97443.53;4976146;28;20203;-83
2022/01/05 03:08:40;;;;;;;2.00;0.80;;;;;;;4.11;100.00;97448.47;4972708;28;20223;-84
2022/01/05 03:11:09;;;;;;;2.23;0.70;;;;;;;4.11;100.00;97448.47;4968904;28;20231;-84
2022/01/05 03:13:43;;;;;;;2.40;1.10;;;;;;;4.09;100.00;97449.53;4993357;28;20195;-84
2022/01/05 03:16:11;;;;;;;1.50;0.73;;;;;;;4.10;100.00;97462.50;4995125;28;20290;-84
2022/01/05 03:18:42;;;;;;;1.73;0.93;;;;;;;3.94;100.00;97453.97;4998349;28;20199;-84
2022/01/05 03:21:11;;;;;;;1.63;0.70;;;;;;;3.92;100.00;97458.47;4994705;28;20198;-84
2022/01/05 03:23:45;;;;;;;1.07;0.63;;;;;;;3.94;100.00;97464.44;4994058;28;20227;-84
2022/01/05 03:26:15;;;;;;;1.83;0.73;;;;;;;3.92;100.00;97453.22;4996893;28;20202;-84
2022/01/05 03:28:46;;;;;;;1.30;0.57;;;;;;;3.88;100.00;97463.06;4995673;28;20194;-84
2022/01/05 03:31:16;;;;;;;2.50;0.70;;;;;;;3.84;100.00;97468.59;4988805;28;20225;-84
2022/01/05 03:33:44;;;;;;;2.37;0.67;;;;;;;3.72;100.00;97475.44;4994850;28;20271;-83
2022/01/05 03:36:13;;;;;;;3.10;0.60;;;;;;;3.71;100.00;97473.78;4992108;28;20279;-84
2022/01/05 03:38:42;;;;;;;0.50;0.50;;;;;;;3.64;100.00;97470.69;4991146;28;20202;-84
2022/01/05 03:41:10;;;;;;;1.37;0.60;;;;;;;3.49;100.00;97479.53;4992441;28;20257;-84
2022/01/05 03:43:38;;;;;;;2.40;0.80;;;;;;;3.39;100.00;97491.50;4986904;28;20203;-84
2022/01/05 03:46:09;;;;;;;1.10;0.50;;;;;;;3.39;100.00;97486.28;4991080;28;20207;-85
2022/01/05 03:48:37;;;;;;;1.00;0.50;;;;;;;3.39;100.00;97491.50;4994124;28;20199;-84
2022/01/05 03:51:06;;;;;;;3.53;0.60;;;;;;;3.40;100.00;97498.41;4988496;28;20685;-84
2022/01/05 03:53:34;;;;;;;2.20;0.60;;;;;;;3.48;100.00;97503.19;4990495;28;20202;-85
2022/01/05 03:56:04;;;;;;;4.77;0.80;;;;;;;3.51;100.00;97505.59;4991457;28;20207;-84
2022/01/05 03:58:34;;;;;;;1.13;0.70;;;;;;;3.54;100.00;97503.63;4974177;28;20202;-84
2022/01/05 04:01:04;;;;;;;2.33;0.60;;;;;;;3.49;100.00;97521.41;4993853;28;20199;-83
2022/01/05 04:03:34;;;;;;;2.50;0.70;;;;;;;3.55;100.00;97520.16;5014262;28;20198;-84
2022/01/05 04:06:03;;;;;;;1.43;0.60;;;;;;;3.63;100.00;97521.38;4993295;28;20191;-84
2022/01/05 04:08:31;;;;;;;1.83;0.80;;;;;;;3.59;100.00;97547.84;4990602;28;20234;-84
2022/01/05 04:11:00;;;;;;;1.30;0.60;;;;;;;3.55;100.00;97544.56;4990709;28;20278;-84
2022/01/05 04:13:28;;;;;;;3.27;0.70;;;;;;;3.59;100.00;97548.69;4990899;28;20214;-84
2022/01/05 04:15:56;;;;;;;3.60;0.80;;;;;;;3.58;100.00;97548.78;4991442;28;20676;-84
2022/01/05 04:18:24;;;;;;;2.67;0.70;;;;;;;;;;4995233;28;20231;-83
2022/01/05 04:20:55;;;;;;;1.03;0.60;;;;;;;3.58;100.00;97548.78;4999018;28;20199;-84
2022/01/05 04:23:25;;;;;;;2.03;0.77;;;;;;;3.47;100.00;97557.25;5013956;28;20233;-84
2022/01/05 04:25:57;;;;;;;4.97;0.80;;;;;;;3.47;100.00;97572.13;5007358;28;20202;-84
2022/01/05 04:28:26;;;;;;;3.93;0.87;;;;;;;3.39;100.00;97573.47;5009625;28;20208;-84
2022/01/05 04:30:55;;;;;;;3.33;1.00;;;;;;;3.33;100.00;97588.69;5015684;28;20270;-84
2022/01/05 04:33:23;;;;;;;3.40;1.00;;;;;;;3.35;100.00;97592.88;5015236;28;20210;-84
2022/01/05 04:36:20;;;;;;;3.67;1.10;;;;;;;3.37;100.00;97577.91;5021530;28;20194;-84
2022/01/05 04:38:49;;;;;;;4.73;0.90;;;;;;;3.33;100.00;97592.13;5014977;28;20198;-84
2022/01/05 04:41:18;;;;;;;3.03;1.20;;;;;;;3.30;100.00;97597.56;5009934;28;20205;-83
2022/01/05 04:43:46;;;;;;;3.00;1.60;;;;;;;3.29;100.00;97598.50;5015527;28;20194;-84
2022/01/05 04:46:15;;;;;;;3.23;1.27;;;;;;;3.27;100.00;97602.09;5010032;28;20202;-83
2022/01/05 04:48:43;;;;;;;3.50;1.53;;;;;;;3.25;100.00;97619.69;5014257;28;20282;-84
2022/01/05 04:51:13;;;;;;;5.93;1.50;;;;;;;3.24;100.00;97631.91;5008372;28;20700;-83
2022/01/05 04:53:42;;;;;;;7.83;2.17;;;;;;;3.15;100.00;97635.06;5018753;28;20781;-83
2022/01/05 04:56:10;;;;;;;5.30;1.70;;;;;;;3.19;100.00;97627.91;5013613;28;20277;-83
2022/01/05 04:58:41;;;;;;;5.77;2.00;;;;;;;3.19;100.00;97627.91;5014698;28;20234;-84
2022/01/05 05:01:09;;;;;;;6.90;2.10;;;;;;;3.19;100.00;97627.91;5016627;28;20237;-84
2022/01/05 05:03:38;;;;;;;8.10;2.20;;;;;;;3.19;100.00;97627.91;5012775;28;20210;-84
2022/01/05 05:06:08;;;;;;;6.33;1.93;;;;;;;3.13;100.00;97648.25;5017609;28;20191;-84
2022/01/05 05:08:37;;;;;;;7.53;2.40;;;;;;;3.10;100.00;97664.13;5012009;28;20217;-84
2022/01/05 05:11:06;;;;;;;4.87;2.30;;;;;;;2.93;100.00;97679.09;5020648;28;20199;-84
2022/01/05 05:13:35;;;;;;;4.67;2.33;;;;;;;3.08;100.00;97670.34;5015542;28;20214;-85
2022/01/05 05:16:03;;;;;;;6.53;2.33;;;;;;;3.06;100.00;97667.00;5015529;28;20192;-84
2022/01/05 05:18:32;;;;;;;7.40;2.70;;;;;;;3.10;100.00;97678.97;5005978;28;20211;-84
2022/01/05 05:21:08;;;;;;;5.17;2.70;;;;;;;3.06;100.00;97691.38;5014550;28;20249;-84
2022/01/05 05:23:40;;;;;;;7.63;2.67;;;;;;;3.04;100.00;97695.00;5006286;28;20253;-83
2022/01/05 05:26:08;;;;;;;6.57;3.43;;;;;;;3.03;100.00;97691.56;5013688;28;20249;-84
2022/01/05 05:28:37;;;;;;;7.23;3.33;;;;;;;2.99;100.00;97697.03;5020949;28;20194;-84
2022/01/05 05:31:05;;;;;;;5.53;3.73;;;;;;;2.97;100.00;97702.34;5011992;28;20264;-84
2022/01/05 05:33:34;;;;;;;5.47;3.37;;;;;;;2.97;100.00;97702.34;5006673;28;20218;-84
2022/01/05 05:36:02;;;;;;;7.60;4.43;;;;;;;2.97;100.00;97709.34;5008227;28;20736;-83
2022/01/05 05:38:30;;;;;;;9.17;4.20;;;;;;;2.97;100.00;97714.59;5014876;28;20202;-84
2022/01/05 05:41:00;;;;;;;8.57;4.27;;;;;;;3.01;100.00;97713.50;5007766;28;20198;-83
2022/01/05 05:43:29;;;;;;;10.30;4.60;;;;;;;3.00;100.00;97710.03;5012320;28;20712;-84
2022/01/05 05:45:57;;;;;;;9.73;3.90;;;;;;;2.96;100.00;97705.91;5016247;28;20210;-84
2022/01/05 05:48:25;;;;;;;7.90;3.83;;;;;;;2.87;100.00;97709.03;5009341;28;20190;-84
2022/01/05 05:50:54;;;;;;;7.97;3.90;;;;;;;2.84;100.00;97706.59;5009831;28;20323;-84
2022/01/05 05:53:22;;;;;;;8.90;4.30;;;;;;;2.82;100.00;97709.31;5007074;28;20214;-83
2022/01/05 05:55:53;;;;;;;6.73;4.07;;;;;;;2.84;100.00;97715.28;5012824;28;20227;-84
2022/01/05 05:58:22;;;;;;;11.60;4.57;;;;;;;2.63;100.00;97724.31;4978326;28;20211;-84
2022/01/05 06:00:55;;;;;;;9.30;4.40;;;;;;;2.64;100.00;97720.78;5007745;28;20210;-85
2022/01/05 06:03:24;;;;;;;10.57;4.47;;;;;;;2.70;100.00;97725.69;5010000;28;20198;-84
2022/01/05 06:05:52;;;;;;;7.83;3.80;;;;;;;2.68;100.00;97726.69;5016709;28;20207;-84
2022/01/05 06:08:20;;;;;;;6.20;3.87;;;;;;;2.70;100.00;97728.31;5010188;28;20201;-84
2022/01/05 06:10:49;;;;;;;8.57;4.07;;;;;;;2.69;100.00;97723.13;5012625;28;20206;-84
2022/01/05 06:13:17;;;;;;;7.27;4.20;;;;;;;2.68;100.00;97727.50;5009477;28;20256;-85
2022/01/05 06:15:47;;;;;;;9.07;4.20;;;;;;;2.67;100.00;97740.66;5004868;28;20198;-84
2022/01/05 06:18:15;;;;;;;11.33;3.90;;;;;;;2.58;100.00;97752.47;5012531;28;20194;-84
2022/01/05 06:20:44;;;;;;;10.70;4.17;;;;;;;2.59;100.00;97752.38;5010674;28;20206;-84
2022/01/05 06:23:12;;;;;;;7.23;4.13;;;;;;;2.53;100.00;97755.34;5010587;28;20236;-84
2022/01/05 06:25:41;;;;;;;10.53;3.50;;;;;;;2.51;100.00;97754.59;5012256;28;20218;-84
2022/01/05 06:28:11;;;;;;;7.87;3.83;;;;;;;2.53;100.00;97757.13;4993142;28;20241;-85
2022/01/05 06:30:39;;;;;;;7.97;3.40;;;;;;;2.56;100.00;97759.56;5006306;28;20198;-84
2022/01/05 06:33:10;;;;;;;9.47;3.37;;;;;;;2.56;100.00;97760.41;5007034;28;20230;-84
2022/01/05 06:35:38;;;;;;;9.60;3.97;;;;;;;2.40;100.00;97767.38;5003619;28;20190;-84
2022/01/05 06:38:06;;;;;;;6.63;2.70;;;;;;;2.50;100.00;97770.31;5004803;28;20206;-84
2022/01/05 06:40:35;;;;;;;7.70;3.07;;;;;;;2.42;100.00;97756.84;5004672;28;20194;-84
2022/01/05 06:43:03;;;;;;;8.70;2.80;;;;;;;2.48;100.00;97780.03;5008540;28;20205;-84
2022/01/05 06:45:32;;;;;;;8.00;2.93;;;;;;;2.44;100.00;97784.59;5007080;28;20198;-83
2022/01/05 06:48:01;;;;;;;7.47;2.70;;;;;;;2.41;100.00;97776.88;5005013;28;20210;-83
2022/01/05 06:50:31;;;;;;;6.97;2.73;;;;;;;2.44;100.00;97792.41;5013181;28;20197;-83
2022/01/05 06:52:59;;;;;;;6.03;2.77;;;;;;;2.39;100.00;97797.03;5007822;28;20244;-83
2022/01/05 06:55:28;;;;;;;8.03;3.00;;;;;;;2.42;100.00;97799.50;5009643;28;20195;-83
2022/01/05 06:57:56;;;;;;;10.13;3.10;;;;;;;2.43;100.00;97793.34;5005838;28;20678;-83
2022/01/05 07:00:26;;;;;;;8.60;2.50;;;;;;;2.51;100.00;97812.06;5010195;28;20191;-83
2022/01/05 07:02:54;;;;;;;7.97;2.80;;;;;;;2.53;100.00;97810.22;5014650;28;20206;-83
2022/01/05 07:05:22;;;;;;;4.00;2.80;;;;;;;2.50;100.00;97809.53;5014040;28;20186;-83
2022/01/05 07:07:53;;;;;;;5.90;2.80;;;;;;;2.58;100.00;97813.41;5011882;28;20198;-83
2022/01/05 07:10:21;;;;;;;8.70;2.90;;;;;;;2.38;100.00;97820.63;5017003;28;20202;-84
2022/01/05 07:12:49;;;;;;;9.07;3.30;;;;;;;2.51;100.00;97819.91;5015530;28;20193;-84
2022/01/05 07:15:18;;;;;;;5.63;2.80;;;;;;;2.43;100.00;97829.09;5014516;28;20689;-84
2022/01/05 07:17:46;;;;;;;5.60;2.57;;;;;;;2.48;100.00;97840.97;5008851;28;20201;-84
2022/01/05 07:20:16;;;;;;;5.87;2.50;;;;;;;2.42;100.00;97836.06;5009386;28;20193;-84
2022/01/05 07:22:45;;;;;;;8.80;2.40;;;;;;;2.38;100.00;97841.53;5013781;28;20757;-84
2022/01/05 07:25:15;;;;;;;5.83;2.00;;;;;;;2.35;100.00;97847.75;5011752;28;20248;-84
2022/01/05 07:27:43;;;;;;;5.33;2.50;;;;;;;2.30;100.00;97854.97;5010779;28;20285;-84
2022/01/05 07:30:13;;;;;;;6.07;2.33;;;;;;;2.34;100.00;97858.31;5012095;28;20201;-84
2022/01/05 07:32:41;;;;;;;5.43;1.97;;;;;;;2.33;100.00;97873.13;5016420;28;20198;-84
2022/01/05 07:35:10;;;;;;;9.03;2.53;;;;;;;2.32;100.00;97875.78;5016301;28;20226;-84
2022/01/05 07:37:39;;;;;;;7.67;2.40;;;;;;;2.32;100.00;97868.84;5010671;28;20202;-84
2022/01/05 07:40:09;;;;;;;8.80;2.50;;;;;;;2.25;100.00;97867.44;5009155;28;20198;-83
2022/01/05 07:42:39;;;;;;;7.23;2.17;;;;;;;2.21;100.00;97882.41;5010471;28;20199;-84
2022/01/05 07:45:10;;;;;;;7.83;1.93;;;;;;;2.21;100.00;97887.63;5016145;28;20194;-84
2022/01/05 07:47:39;;;;;;;7.83;2.33;;;;;;;2.08;100.00;97880.50;5013203;28;20346;-84
2022/01/05 07:50:14;;;;;;;6.83;1.60;;;;;;;2.08;100.00;97872.69;5011752;28;20253;-84
2022/01/05 07:52:44;;;;;;;5.57;2.17;;;;;;;2.12;100.00;97888.09;5009747;28;20216;-84
2022/01/05 07:55:14;;;;;;;5.60;2.03;;;;;;;2.12;100.00;97892.47;5012806;28;20237;-84
2022/01/05 07:57:43;;;;;;;3.90;2.00;;;;;;;2.06;100.00;97883.22;5011727;28;20198;-84
2022/01/05 08:00:13;;;;;;;8.77;2.20;;;;;;;2.05;100.00;97891.13;5014230;28;20637;-84
2022/01/05 08:02:41;;;;;;;5.23;2.30;;;;;;;2.08;100.00;97897.03;5013009;28;20194;-84
2022/01/05 08:05:10;;;;;;;5.63;2.40;;;;;;;2.01;100.00;97893.88;5011889;28;20229;-84
2022/01/05 08:07:38;;;;;;;10.27;2.30;;;;;;;2.05;100.00;97893.72;5015591;28;20206;-84
2022/01/05 08:10:08;;;;;;;5.17;2.30;;;;;;;2.07;100.00;97899.72;5012821;28;20198;-84
2022/01/05 08:12:36;;;;;;;8.73;2.27;;;;;;;2.10;100.00;97897.78;5008836;28;20195;-84
2022/01/05 08:15:07;;;;;;;6.83;2.63;;;;;;;2.17;100.00;97906.16;5007847;28;20226;-84
2022/01/05 08:17:40;;;;;;;10.43;2.40;;;;;;;2.09;100.00;97908.31;5013893;28;20272;-84
2022/01/05 08:20:10;;;;;;;8.87;2.63;;;;;;;1.97;100.00;97900.19;5012726;28;20201;-83
2022/01/05 08:22:41;;;;;;;7.43;2.17;;;;;;;1.97;100.00;97900.19;5008975;28;20253;-84
2022/01/05 08:25:10;;;;;;;6.63;2.50;;;;;;;2.11;100.00;97904.69;5013827;28;20199;-85
2022/01/05 08:27:45;;;;;;;8.43;3.13;;;;;;;1.92;100.00;97914.38;5009158;28;20256;-86
2022/01/05 08:30:17;;;;;;;11.30;3.10;;;;;;;2.17;100.00;97927.06;5009172;28;20198;-84
2022/01/05 08:32:47;;;;;;;11.07;2.63;;;;;;;2.29;100.00;97921.22;5010747;28;20241;-83
2022/01/05 08:35:19;;;;;;;8.73;2.50;;;;;;;2.24;100.00;97929.28;5013402;28;20282;-84
2022/01/05 08:37:48;;;;;;;9.07;3.03;;;;;;;2.18;100.00;97932.19;5010105;28;20256;-84
2022/01/05 08:40:19;;;;;;;7.87;2.27;;;;;;;2.29;100.00;97929.88;5015237;28;20205;-83
2022/01/05 08:42:47;;;;;;;11.70;2.27;;;;;;;2.35;100.00;97936.59;5006734;28;20257;-83
2022/01/05 08:45:18;;;;;;;10.97;2.97;;;;;;;2.26;100.00;97929.22;5006779;28;20202;-83
2022/01/05 08:47:48;;;;;;;9.47;2.30;;;;;;;2.39;100.00;97932.03;5012197;28;20194;-83
2022/01/05 08:50:18;;;;;;;13.53;2.40;;;;;;;2.34;100.00;97918.38;5010666;28;20226;-83
2022/01/05 08:52:46;;;;;;;7.70;2.93;;;;;;;2.26;100.00;97934.44;5006597;28;20202;-83
2022/01/05 08:55:18;;;;;;;9.10;2.50;;;;;;;2.39;100.00;97932.03;5010158;28;20248;-83
2022/01/05 08:57:47;;;;;;;14.63;3.03;;;;;;;2.32;100.00;97941.09;5008178;28;20202;-83
2022/01/05 09:00:19;;;;;;;12.07;4.53;;;;;;;2.19;100.00;97951.31;5005214;28;20203;-84
2022/01/05 09:02:47;;;;;;;8.07;2.60;;;;;;;2.27;100.00;97941.34;5006872;28;20186;-83
2022/01/05 09:05:21;;;;;;;11.70;3.43;;;;;;;2.15;100.00;97957.63;5009620;28;20218;-84
2022/01/05 09:07:49;;;;;;;17.07;7.83;;;;;;;2.08;100.00;97957.09;5008065;28;20202;-83
2022/01/05 09:10:18;;;;;;;12.57;3.73;;;;;;;2.17;100.00;97956.63;5004082;28;20217;-83
2022/01/05 09:12:51;;;;;;;12.47;3.63;;;;;;;2.07;100.00;97963.22;5010621;28;20203;-83
2022/01/05 09:15:21;;;;;;;9.87;3.13;;;;;;;2.08;100.00;97962.31;5009774;28;20366;-83
2022/01/05 09:17:51;;;;;;;6.83;2.37;;;;;;;2.23;100.00;97965.94;5009779;28;20195;-83
2022/01/05 09:20:20;;;;;;;8.23;3.33;;;;;;;2.06;100.00;97985.03;5011606;28;20195;-82
2022/01/05 09:22:48;;;;;;;12.53;5.97;;;;;;;2.06;100.00;97985.03;5004525;28;20223;-83
2022/01/05 09:25:18;;;;;;;16.00;7.20;;;;;;;2.04;100.00;97981.66;5008552;28;20198;-82
2022/01/05 09:27:47;;;;;;;8.90;2.80;;;;;;;2.04;100.00;97981.66;5005621;28;20213;-83
2022/01/05 09:30:17;;;;;;;7.77;2.20;;;;;;;2.23;100.00;97985.06;5005045;28;20194;-84
2022/01/05 09:32:47;;;;;;;11.97;2.60;;;;;;;2.23;100.00;97985.06;5012329;28;20666;-84
2022/01/05 09:35:19;;;;;;;13.10;2.10;;;;;;;2.20;100.00;97984.34;5009246;28;20223;-83
2022/01/05 09:37:54;;;;;;;10.23;3.20;;;;;;;2.26;100.00;97994.50;5007682;28;20197;-84
2022/01/05 09:43:10;;;;;;;8.23;2.60;;;;;;;2.30;100.00;97999.50;5013645;28;20202;-84
2022/01/05 09:45:52;;;;;;;6.73;1.97;;;;;;;2.35;100.00;98014.13;5007195;28;20658;-83
2022/01/05 09:48:38;;;;;;;10.73;2.67;;;;;;;2.25;100.00;98011.09;5010946;28;20261;-83
2022/01/05 09:51:11;;;;;;;14.20;2.73;;;;;;;2.25;100.00;98008.50;5010108;28;20201;-83
2022/01/05 09:53:41;;;;;;;8.00;2.30;;;;;;;2.26;100.00;98011.03;5004032;28;20233;-83
2022/01/05 09:56:31;;;;;;;6.37;2.57;;;;;;;2.36;100.00;98010.56;5012569;28;20249;-84
2022/01/05 09:59:02;;;;;;;10.83;3.33;;;;;;;2.28;100.00;98017.00;5008376;28;20256;-83
2022/01/05 10:01:31;;;;;;;9.13;2.40;;;;;;;2.28;100.00;98017.00;5008905;28;20201;-83
2022/01/05 10:04:02;;;;;;;9.50;2.80;;;;;;;2.27;100.00;98009.25;5006875;28;20213;-84
2022/01/05 10:06:36;;;;;;;7.80;2.33;;;;;;;2.42;100.00;98016.34;5008632;28;20238;-84
2022/01/05 10:09:05;;;;;;;11.00;2.20;;;;;;;2.42;100.00;98016.34;5010970;28;20194;-83
2022/01/05 10:11:34;;;;;;;7.73;2.17;;;;;;;2.52;100.00;98001.06;5006370;28;20190;-83
2022/01/05 10:14:03;;;;;;;9.03;2.70;;;;;;;2.48;100.00;98004.75;5005798;28;20280;-83
2022/01/05 10:16:31;;;;;;;8.50;2.27;;;;;;;2.54;100.00;98002.66;5009131;28;20317;-83
2022/01/05 10:19:05;;;;;;;10.10;2.40;;;;;;;2.56;100.00;98010.44;5010002;28;20194;-83
2022/01/05 10:21:36;;;;;;;9.27;2.20;;;;;;;2.62;100.00;98001.44;5009550;28;20190;-82
2022/01/05 10:24:05;;;;;;;8.77;2.20;;;;;;;2.62;100.00;98001.44;5013615;28;20199;-82
2022/01/05 10:26:36;;;;;;;8.90;2.87;;;;;;;2.70;100.00;98013.22;5005538;28;20658;-82
2022/01/05 10:29:06;;;;;;;7.90;2.70;;;;;;;2.74;100.00;98004.28;5008131;28;20194;-82
2022/01/05 10:31:37;;;;;;;14.17;2.83;;;;;;;2.68;100.00;97996.72;5009388;28;20658;-82
2022/01/05 10:34:26;;;;;;;9.10;2.57;;;;;;;2.69;100.00;98018.50;5009313;28;20203;-82
2022/01/05 10:36:57;;;;;;;10.23;2.23;;;;;;;2.80;100.00;98006.59;5011942;28;20312;-82
2022/01/05 10:39:30;;;;;;;7.17;1.90;;;;;;;2.94;100.00;98015.47;5014772;28;20214;-82
2022/01/05 10:42:04;;;;;;;7.10;2.43;;;;;;;2.81;100.00;98008.28;5013896;28;20197;-82
2022/01/05 10:44:33;;;;;;;7.27;2.27;;;;;;;2.77;100.00;98011.09;4981283;28;20203;-82
2022/01/05 10:47:02;;;;;;;11.23;2.33;;;;;;;2.83;100.00;98008.19;5011683;28;20198;-82
2022/01/05 10:49:34;;;;;;;6.03;2.03;;;;;;;2.94;100.00;98010.25;5017414;28;20194;-83
2022/01/05 10:52:20;;;;;;;9.90;2.77;;;;;;;2.85;100.00;98014.19;5014439;28;20190;-83
2022/01/05 10:54:50;;;;;;;5.70;2.00;;;;;;;2.98;100.00;97998.69;5014383;28;20198;-83
2022/01/05 10:57:22;;;;;;;10.83;2.37;;;;;;;3.00;100.00;98002.09;5007940;28;20218;-83
2022/01/05 10:59:54;;;;;;;11.13;2.40;;;;;;;3.02;100.00;97997.63;4964103;28;20190;-83
2022/01/05 11:02:29;;;;;;;5.23;1.83;;;;;;;3.05;100.00;98014.00;5017018;28;20190;-83
2022/01/05 11:05:13;;;;;;;7.90;2.10;;;;;;;3.08;100.00;98010.38;5005244;28;20213;-82
2022/01/05 11:07:46;;;;;;;7.47;2.10;;;;;;;3.11;100.00;98005.00;5014607;28;20191;-83
2022/01/05 11:10:20;;;;;;;7.20;2.60;;;;;;;3.12;100.00;98025.00;5005750;28;20198;-83
2022/01/05 11:12:53;;;;;;;6.40;2.00;;;;;;;3.13;100.00;98005.75;5008886;28;20232;-83
2022/01/05 11:15:27;;;;;;;6.53;2.03;;;;;;;3.23;100.00;98008.72;5012370;28;20273;-83
2022/01/05 11:18:13;;;;;;;5.77;2.17;;;;;;;3.30;100.00;98005.72;5014211;28;20267;-82
2022/01/05 11:20:51;;;;;;;8.83;2.40;;;;;;;3.23;100.00;98020.03;5011571;28;20197;-83
2022/01/05 11:23:20;;;;;;;8.97;2.40;;;;;;;3.25;100.00;98005.09;5011398;28;20260;-83
2022/01/05 11:25:50;;;;;;;6.90;1.80;;;;;;;3.37;100.00;97996.59;5011900;28;20282;-83
2022/01/05 11:28:21;;;;;;;8.57;2.10;;;;;;;3.37;100.00;97996.59;5013802;28;20282;-82
2022/01/05 11:30:51;;;;;;;5.70;2.13;;;;;;;3.42;100.00;97997.19;5016463;28;20209;-83
2022/01/05 11:33:20;;;;;;;9.97;2.50;;;;;;;3.37;100.00;97996.59;5013882;28;20248;-83
2022/01/05 11:35:51;;;;;;;6.70;1.67;;;;;;;3.38;100.00;98000.91;5016336;28;20218;-83
2022/01/05 11:38:19;;;;;;;10.97;3.13;;;;;;;3.32;100.00;98003.00;5013605;28;20217;-83
2022/01/05 11:40:51;;;;;;;9.53;3.30;;;;;;;3.36;100.00;98001.91;5015553;28;20203;-83
2022/01/05 11:43:24;;;;;;;8.40;2.93;;;;;;;3.36;100.00;98001.91;5004552;28;20202;-83
2022/01/05 11:45:54;;;;;;;11.10;2.40;;;;;;;3.50;100.00;98001.19;4975341;28;20204;-83
2022/01/05 11:48:35;;;;;;;6.80;1.87;;;;;;;3.44;100.00;98002.34;4969569;28;20203;-82
2022/01/05 11:51:05;;;;;;;8.70;2.00;;;;;;;3.54;100.00;98003.53;4969008;28;20226;-83